Latest Coastal Weather Observations for Truscott

IDD60701

Issued at 6:11 am CST Monday 26 June 2017 (issued every 10 minutes, with the page automatically refreshed every 10 minutes)

About coastal observations | Map of coastal stations | Coastal observations for NT | Marine services | Other Formats
Station Details ID: 001020 Name: TRUSCOTT Lat: -14.09 Lon: 126.39 Height: 51.0 m
Data from the previous 72 hours. | See also: Recent months at Truscott
Date/Time
CST
Temp
°C
Wind Pressure Rain since
9am
mm
Weather Cloud Vis
km
Sea
Height
m
Swell
Dir  Spd
kts
Gust
kts
hPa Trend Height
m
Period
s
Dir
26/06:00am 20.2 SSW 4 5 1012.4 - 0.0 - Partly cloudy 10 - - - -
26/05:30am 20.4 S 2 4 1012.3 - 0.0 - Partly cloudy 10 - - - -
26/05:00am 21.4 S 3 4 1012.2 - 0.0 - Partly cloudy 10 - - - -
26/04:30am 21.2 CALM 0 3 1012.1 - 0.0 - Mostly cloudy 10 - - - -
26/04:06am 20.2 CALM 0 0 1012.2 - 0.0 - Partly cloudy 10 - - - -
26/04:00am 19.8 CALM 0 0 1012.1 - 0.0 - Partly cloudy 10 - - - -
26/03:30am 19.8 CALM 0 0 1012.0 - 0.0 - - 10 - - - -
26/03:04am 20.2 CALM 0 0 1012.2 - 0.0 - Partly cloudy 10 - - - -
26/03:00am 20.4 CALM 0 0 1012.2 - 0.0 - Partly cloudy 10 - - - -
26/02:37am 20.3 CALM 0 0 1012.4 - 0.0 - Partly cloudy 10 - - - -
26/02:30am 20.1 CALM 0 0 1012.5 - 0.0 - Partly cloudy 10 - - - -
26/02:00am 20.0 CALM 0 0 1012.7 - 0.0 - - 10 - - - -
26/01:30am 20.4 CALM 0 0 1013.0 - 0.0 - - 10 - - - -
26/01:00am 20.6 CALM 0 0 1013.1 - 0.0 - - 10 - - - -
26/12:30am 20.5 CALM 0 0 1013.0 - 0.0 - - 10 - - - -
26/12:00am 20.4 CALM 0 0 1013.1 - 0.0 - - 10 - - - -
 
Date/Time
CST
Temp
°C
Wind Pressure Rain since
9am
mm
Weather Cloud Vis
km
Sea
Height
m
Swell
Dir  Spd
kts
Gust
kts
hPa Trend Height
m
Period
s
Dir
25/11:30pm 20.6 CALM 0 0 1013.3 - 0.0 - - 10 - - - -
25/11:00pm 20.8 CALM 0 0 1013.4 - 0.0 - - 10 - - - -
25/10:30pm 20.8 CALM 0 0 1013.4 - 0.0 - - 10 - - - -
25/10:00pm 20.9 CALM 0 0 1013.0 - 0.0 - - 10 - - - -
25/09:30pm 21.4 CALM 0 0 1012.7 - 0.0 - - 10 - - - -
25/09:00pm 22.4 NE 1 3 1012.5 - 0.0 - - 10 - - - -
25/08:30pm 23.3 NNE 1 3 1012.2 - 0.0 - - 10 - - - -
25/08:00pm 23.8 NNE 4 6 1011.8 - 0.0 - - 10 - - - -
25/07:30pm 24.1 NNE 5 7 1011.5 - 0.0 - - 10 - - - -
25/07:00pm 24.7 NNE 6 9 1011.1 - 0.0 - - 10 - - - -
25/06:30pm 25.3 NNE 8 11 1011.0 - 0.0 - - 10 - - - -
25/06:00pm 26.1 NNE 7 11 1010.8 - 0.0 - - 10 - - - -
25/05:30pm 26.8 N 9 14 1010.7 - 0.0 - - 10 - - - -
25/05:00pm 27.2 N 8 11 1010.7 - 0.0 - - 10 - - - -
25/04:30pm 27.9 N 9 13 1010.6 - 0.0 - - 10 - - - -
25/04:00pm 29.5 NNE 9 13 1010.7 - 0.0 - - 10 - - - -
25/03:30pm 29.6 N 8 12 1010.7 - 0.0 - - 10 - - - -
25/03:00pm 30.0 N 9 13 1010.8 - 0.0 - - 10 - - - -
25/02:30pm 31.2 NE 7 10 1011.1 - 0.0 - - 10 - - - -
25/02:00pm 31.0 ENE 8 13 1011.6 - 0.0 - - 10 - - - -
25/01:30pm 30.4 NE 9 13 1012.1 - 0.0 - - 10 - - - -
25/01:00pm 30.2 NE 9 14 1012.5 - 0.0 - - 10 - - - -
25/12:30pm 29.8 E 8 12 1013.0 - 0.0 - - 10 - - - -
25/12:00pm 30.0 E 7 9 1013.4 - 0.0 - - 10 - - - -
25/11:30am 29.7 ESE 5 8 1013.7 - 0.0 - - 10 - - - -
25/11:00am 28.1 ESE 5 7 1013.9 - 0.0 - - 10 - - - -
25/10:30am 27.8 SSE 4 7 1014.0 - 0.0 - - 10 - - - -
25/10:00am 26.4 SE 5 7 1014.0 - 0.0 - - 10 - - - -
25/09:30am 25.3 SE 3 5 1013.9 - 0.0 - - 10 - - - -
25/09:00am 23.9 SSE 3 5 1013.8 - 0.0 - - 10 - - - -
25/08:30am 22.6 SSE 4 5 1013.2 - 0.0 - - 10 - - - -
25/08:00am 21.8 S 5 8 1012.9 - 0.0 - - 10 - - - -
25/07:30am 21.5 SSW 5 7 1012.5 - 0.0 - - 10 - - - -
25/07:00am 21.2 SSW 5 7 1012.1 - 0.0 - - 10 - - - -
25/06:30am 20.6 SSW 4 6 1011.9 - 0.0 - - 10 - - - -
25/06:00am 21.6 SSW 5 6 1011.9 - 0.0 - - 10 - - - -
25/05:30am 20.6 SSW 3 4 1011.8 - 0.0 - - 10 - - - -
25/05:00am 20.5 SSW 3 4 1011.8 - 0.0 - - 10 - - - -
25/04:30am 20.7 SSW 3 4 1011.8 - 0.0 - - 10 - - - -
25/04:00am 21.4 SSW 4 5 1011.9 - 0.0 - - 10 - - - -
25/03:30am 21.6 SSW 4 5 1012.0 - 0.0 - - 10 - - - -
25/03:00am 21.4 SSW 3 4 1012.0 - 0.0 - - 10 - - - -
25/02:30am 21.0 CALM 0 0 1012.1 - 0.0 - - 10 - - - -
25/02:00am 21.3 SSE 3 4 1012.3 - 0.0 - - 10 - - - -
25/01:30am 21.6 SE 3 4 1012.5 - 0.0 - - 10 - - - -
25/01:00am 21.6 ESE 3 4 1012.5 - 0.0 - - 10 - - - -
25/12:30am 22.1 SE 3 4 1012.5 - 0.0 - - 10 - - - -
25/12:00am 22.1 SSE 3 4 1012.6 - 0.0 - - 10 - - - -
 
Date/Time
CST
Temp
°C
Wind Pressure Rain since
9am
mm
Weather Cloud Vis
km
Sea
Height
m
Swell
Dir  Spd
kts
Gust
kts
hPa Trend Height
m
Period
s
Dir
24/11:30pm 22.5 SE 3 4 1012.7 - 0.0 - - 10 - - - -
24/11:00pm 22.6 SSE 3 4 1012.9 - 0.0 - - 10 - - - -
24/10:30pm 22.6 SE 3 5 1012.7 - 0.0 - - 10 - - - -
24/10:00pm 22.9 ESE 1 4 1012.5 - 0.0 - - 10 - - - -
24/09:30pm 23.2 E 3 5 1012.1 - 0.0 - - 10 - - - -
24/09:00pm 23.7 ENE 3 5 1011.6 - 0.0 - - 10 - - - -
24/08:30pm 24.0 NE 5 6 1011.3 - 0.0 - - 10 - - - -
24/08:00pm 24.3 NE 5 7 1010.9 - 0.0 - - 10 - - - -
24/07:30pm 24.5 NE 5 8 1010.6 - 0.0 - - 10 - - - -
24/07:00pm 24.9 NE 7 9 1010.3 - 0.0 - - 10 - - - -
24/06:30pm 25.6 NNE 6 10 1010.2 - 0.0 - - 10 - - - -
24/06:00pm 26.5 NNE 7 12 1009.8 - 0.0 - - 10 - - - -
24/05:30pm 27.3 NNE 9 14 1009.6 - 0.0 - - 10 - - - -
24/05:00pm 28.2 N 7 11 1009.4 - 0.0 - - 10 - - - -
24/04:30pm 28.5 NNE 8 11 1009.5 - 0.0 - - 10 - - - -
24/04:00pm 29.2 NNE 7 10 1009.5 - 0.0 - - 10 - - - -
24/03:30pm 29.5 N 8 11 1009.6 - 0.0 - - 10 - - - -
24/03:00pm 29.6 N 9 14 1009.7 - 0.0 - - 10 - - - -
24/02:30pm 31.0 NE 7 12 1010.3 - 0.0 - - 10 - - - -
24/02:00pm 30.5 ENE 9 12 1010.7 - 0.0 - - 10 - - - -
24/01:30pm 30.3 NE 9 13 1011.2 - 0.0 - - 10 - - - -
24/01:00pm 30.4 E 8 13 1011.9 - 0.0 - - 10 - - - -
24/12:30pm 30.4 ENE 8 11 1012.3 - 0.0 - - 10 - - - -
24/12:00pm 29.7 ENE 7 11 1012.6 - 0.0 - - 10 - - - -
24/11:30am 29.7 E 7 10 1013.0 - 0.0 - - 10 - - - -
24/11:00am 29.2 ESE 6 8 1013.2 - 0.0 - - 10 - - - -
24/10:30am 28.9 E 5 7 1013.3 - 0.0 - - 10 - - - -
24/10:00am 27.6 SE 3 7 1013.2 - 0.0 - - 10 - - - -
24/09:30am 26.2 S 5 6 1013.1 - 0.0 - - 10 - - - -
24/09:00am 24.4 SSE 3 4 1012.9 - 0.0 - - 10 - - - -
24/08:30am 22.8 S 3 5 1012.5 - 0.0 - - 10 - - - -
24/08:00am 20.3 CALM 0 0 1012.1 - 0.0 - - 10 - - - -
24/07:30am 19.5 S 3 3 1011.8 - 0.0 - - 10 - - - -
24/07:00am 19.8 SSW 1 5 1011.4 - 0.0 - - 10 - - - -
24/06:30am 20.0 S 3 4 1011.3 - 0.0 - - 10 - - - -
24/06:00am 20.2 S 4 4 1011.4 - 0.0 - - 10 - - - -
24/05:30am 20.1 S 3 4 1011.4 - 0.0 - - 10 - - - -
24/05:00am 20.2 SSW 3 4 1011.4 - 0.0 - - 10 - - - -
24/04:30am 20.4 S 4 5 1011.4 - 0.0 - - 10 - - - -
24/04:00am 20.1 CALM 0 4 1011.5 - 0.0 - - 10 - - - -
24/03:30am 20.1 S 3 4 1011.6 - 0.0 - - 10 - - - -
24/03:00am 20.9 SSW 3 4 1012.0 - 0.0 - - 10 - - - -
24/02:30am 20.9 CALM 0 0 1012.2 - 0.0 - - 10 - - - -
24/02:00am 20.4 S 2 3 1012.4 - 0.0 - - 10 - - - -
24/01:30am 20.7 S 2 4 1012.6 - 0.0 - - 10 - - - -
24/01:00am 20.9 SSE 2 3 1012.7 - 0.0 - - 10 - - - -
24/12:30am 21.2 SE 3 3 1012.8 - 0.0 - - 10 - - - -
24/12:00am 21.2 ESE 3 4 1012.9 - 0.0 - - 10 - - - -
 
Date/Time
CST
Temp
°C
Wind Pressure Rain since
9am
mm
Weather Cloud Vis
km
Sea
Height
m
Swell
Dir  Spd
kts
Gust
kts
hPa Trend Height
m
Period
s
Dir
23/11:30pm 21.4 E 4 5 1013.1 - 0.0 - - 10 - - - -
23/11:00pm 21.9 E 4 5 1013.1 - 0.0 - - 10 - - - -
23/10:30pm 21.5 ENE 3 4 1013.0 - 0.0 - - 10 - - - -
23/10:00pm 22.1 NE 2 4 1012.8 - 0.0 - - 10 - - - -
23/09:30pm 22.7 NNE 2 4 1012.6 - 0.0 - - 10 - - - -
23/09:00pm 23.0 NNE 3 5 1012.4 - 0.0 - - 10 - - - -
23/08:30pm 23.1 NNE 3 4 1012.1 - 0.0 - - 10 - - - -
23/08:00pm 23.9 NNE 3 5 1011.8 - 0.0 - - 10 - - - -
23/07:30pm 24.5 NNE 4 5 1011.4 - 0.0 - - 10 - - - -
23/07:00pm 24.9 NNE 3 5 1011.2 - 0.0 - - 10 - - - -
23/06:30pm 25.8 N 5 8 1011.0 - 0.0 - - 10 - - - -
23/06:00pm 26.8 N 7 9 1010.8 - 0.0 - - 10 - - - -
23/05:30pm 27.7 N 7 11 1010.6 - 0.0 - - 10 - - - -
23/05:00pm 28.7 N 7 11 1010.4 - 0.0 - - 10 - - - -
23/04:30pm 30.4 NNW 6 9 1010.4 - 0.0 - - 10 - - - -
23/04:00pm 31.0 NW 6 8 1010.6 - 0.0 - - 10 - - - -
23/03:30pm 30.7 NW 5 8 1010.7 - 0.0 - - 10 - - - -
23/03:00pm 32.1 E 5 7 1011.0 - 0.0 - - 10 - - - -
23/02:30pm 32.1 ENE 6 8 1011.4 - 0.0 - - 10 - - - -
23/02:00pm 32.0 E 5 8 1011.9 - 0.0 - - 10 - - - -
23/01:30pm 31.6 ESE 6 9 1012.5 - 0.0 - - 10 - - - -
23/01:00pm 31.4 ENE 7 10 1013.1 - 0.0 - - 10 - - - -
23/12:30pm 30.9 SE 6 9 1013.7 - 0.0 - - 10 - - - -
23/12:00pm 30.6 SSE 5 8 1014.3 - 0.0 - - 10 - - - -
23/11:30am 29.6 SSE 5 8 1014.8 - 0.0 - - 10 - - - -
23/11:00am 28.2 SSE 6 9 1015.0 - 0.0 - - 10 - - - -
23/10:30am 26.5 S 5 7 1015.2 - 0.0 - - 10 - - - -
23/10:00am 24.8 SW 5 7 1015.3 - 0.0 - - 10 - - - -
23/09:30am 23.2 SSW 4 5 1015.1 - 0.0 - - 10 - - - -
23/09:00am 22.1 SSW 3 5 1014.7 - 0.0 - - 10 - - - -
23/08:30am 21.1 SSW 4 5 1014.3 - 0.0 - - 10 - - - -
23/08:00am 20.5 SSW 4 5 1013.9 - 0.0 - - 10 - - - -

Other Formats:

Comma delimited format used in spreadsheet applications
http://www.bom.gov.au/fwo/IDD60701/IDD60701.95101.axf

JavaScript Object Notation format (JSON) in row-major order
http://www.bom.gov.au/fwo/IDD60701/IDD60701.95101.json